Observation data for Clarendon on 01/18/2019      Previous  Date  Next       Current Mesonet Observations  Soil Data  Daily Summary Page  Observations in Plain Language
KCES 180600Z 17013KT 07/02 A2997 RMK A01 T00670019  RH  073%=      5-min Rain = 0
KCES 180605Z 18012KT 07/02 A2997 RMK A01 T00660019  RH  073%=      5-min Rain = 0
KCES 180610Z 18011KT 06/02 A2997 RMK A01 T00630019  RH  074%=      5-min Rain = 0
KCES 180615Z 18010KT 06/02 A2997 RMK A01 T00620019  RH  075%=      5-min Rain = 0
KCES 180620Z 17009KT 06/02 A2997 RMK A01 T00610019  RH  076%=      5-min Rain = 0
KCES 180625Z 18009KT 06/02 A2997 RMK A01 T00590019  RH  077%=      5-min Rain = 0
KCES 180630Z 18009KT 06/02 A2996 RMK A01 T00580019  RH  077%=      5-min Rain = 0
KCES 180635Z 18010KT 06/02 A2996 RMK A01 T00590020  RH  077%=      5-min Rain = 0
KCES 180640Z 18010KT 06/02 A2996 RMK A01 T00590019  RH  077%=      5-min Rain = 0
KCES 180645Z 18011KT 06/02 A2996 RMK A01 T00590020  RH  077%=      5-min Rain = 0
KCES 180650Z 18010KT 06/02 A2995 RMK A01 T00590020  RH  077%=      5-min Rain = 0
KCES 180655Z 18010KT 06/02 A2995 RMK A01 T00580020  RH  077%=      5-min Rain = 0
KCES 180700Z 17010KT 06/02 A2995 RMK A01 T00580020  RH  077%=      5-min Rain = 0
KCES 180705Z 17010KT 06/02 A2995 RMK A01 T00580020  RH  078%=      5-min Rain = 0
KCES 180710Z 18010KT 06/02 A2994 RMK A01 T00570019  RH  078%=      5-min Rain = 0
KCES 180715Z 17010KT 06/02 A2993 RMK A01 T00560019  RH  079%=      5-min Rain = 0
KCES 180720Z 18009KT 06/02 A2993 RMK A01 T00550019  RH  079%=      5-min Rain = 0
KCES 180725Z 18009KT 06/02 A2993 RMK A01 T00550020  RH  079%=      5-min Rain = 0
KCES 180730Z 19008KT 05/02 A2993 RMK A01 T00540019  RH  079%=      5-min Rain = 0
KCES 180735Z 18008KT 05/02 A2993 RMK A01 T00520018  RH  080%=      5-min Rain = 0
KCES 180740Z 18009KT 05/02 A2993 RMK A01 T00510018  RH  080%=      5-min Rain = 0
KCES 180745Z 18008KT 05/02 A2993 RMK A01 T00510018  RH  081%=      5-min Rain = 0
KCES 180750Z 18009KT 05/02 A2992 RMK A01 T00520020  RH  081%=      5-min Rain = 0
KCES 180755Z 18010KT 05/02 A2992 RMK A01 T00520019  RH  081%=      5-min Rain = 0
KCES 180800Z 18009KT 05/02 A2992 RMK A01 T00500019  RH  082%=      5-min Rain = 0
KCES 180805Z 18008KT 05/02 A2992 RMK A01 T00490019  RH  082%=      5-min Rain = 0
KCES 180810Z 18008KT 05/02 A2991 RMK A01 T00470018  RH  082%=      5-min Rain = 0
KCES 180815Z 19008KT 04/02 A2991 RMK A01 T00440017  RH  084%=      5-min Rain = 0
KCES 180820Z 19008KT 04/01 A2991 RMK A01 T00410014  RH  084%=      5-min Rain = 0
KCES 180825Z 18009KT 04/02 A2991 RMK A01 T00380015  RH  086%=      5-min Rain = 0
KCES 180830Z 18009KT 04/02 A2991 RMK A01 T00410018  RH  086%=      5-min Rain = 0
KCES 180835Z 19008KT 04/02 A299 RMK A01 T00390016  RH  086%=      5-min Rain = 0
KCES 180840Z 18009KT 04/02 A299 RMK A01 T00380016  RH  087%=      5-min Rain = 0
KCES 180845Z 18009KT 04/02 A2989 RMK A01 T00370016  RH  087%=      5-min Rain = 0
KCES 180850Z 18008KT 04/01 A2989 RMK A01 T00370014  RH  087%=      5-min Rain = 0
KCES 180855Z 19008KT 03/01 A2989 RMK A01 T00320011  RH  087%=      5-min Rain = 0
KCES 180900Z 19010KT 04/02 A2988 RMK A01 T00360016  RH  088%=      5-min Rain = 0
KCES 180905Z 19013KT 04/02 A2988 RMK A01 T00410017  RH  086%=      5-min Rain = 0
KCES 180910Z 20012KT 05/02 A2987 RMK A01 T00460019  RH  084%=      5-min Rain = 0
KCES 180915Z 20013KT 05/02 A2987 RMK A01 T00480018  RH  082%=      5-min Rain = 0
KCES 180920Z 19013KT 05/02 A2987 RMK A01 T00480017  RH  082%=      5-min Rain = 0
KCES 180925Z 20010KT 05/02 A2987 RMK A01 T00480017  RH  081%=      5-min Rain = 0
KCES 180930Z 21012KT 05/02 A2987 RMK A01 T00530016  RH  078%=      5-min Rain = 0
KCES 180935Z 21011KT 06/02 A2987 RMK A01 T00560015  RH  076%=      5-min Rain = 0
KCES 180940Z 21010KT 05/01 A2987 RMK A01 T00520013  RH  077%=      5-min Rain = 0
KCES 180945Z 20011KT 05/01 A2986 RMK A01 T00490011  RH  078%=      5-min Rain = 0
KCES 180950Z 20012KT 05/01 A2986 RMK A01 T00520011  RH  076%=      5-min Rain = 0
KCES 180955Z 21012KT 06/01 A2986 RMK A01 T00560010  RH  074%=      5-min Rain = 0
KCES 181000Z 21012KT 06/01 A2986 RMK A01 T00550009  RH  073%=      5-min Rain = 0
KCES 181005Z 21011KT 05/01 A2985 RMK A01 T00530007  RH  073%=      5-min Rain = 0
KCES 181010Z 21011KT 05/01 A2985 RMK A01 T00530005  RH  072%=      5-min Rain = 0
KCES 181015Z 21012KT 06/01 A2984 RMK A01 T00560005  RH  071%=      5-min Rain = 0
KCES 181020Z 20013KT 06/00 A2984 RMK A01 T00600004  RH  068%=      5-min Rain = 0
KCES 181025Z 20014KT 06/00 A2983 RMK A01 T00640004  RH  066%=      5-min Rain = 0
KCES 181030Z 20013KT 07/00 A2983 RMK A01 T00650004  RH  066%=      5-min Rain = 0
KCES 181035Z 20014KT 07/00 A2982 RMK A01 T00660003  RH  065%=      5-min Rain = 0
KCES 181040Z 20014KT 07/00 A2982 RMK A01 T00700003  RH  063%=      5-min Rain = 0
KCES 181045Z 20014KT 07/00 A2982 RMK A01 T00720003  RH  062%=      5-min Rain = 0
KCES 181050Z 20013KT 07/00 A2981 RMK A01 T00680004  RH  064%=      5-min Rain = 0
KCES 181055Z 20013KT 07/00 A2981 RMK A01 T00660003  RH  065%=      5-min Rain = 0
KCES 181100Z 20013KT 07/00 A2981 RMK A01 T00680004  RH  064%=      5-min Rain = 0
KCES 181105Z 20013KT 07/00 A298 RMK A01 T00660004  RH  065%=      5-min Rain = 0
KCES 181110Z 20014KT 06/00 A2979 RMK A01 T00630004  RH  067%=      5-min Rain = 0
KCES 181115Z 20014KT 06/00 A2979 RMK A01 T00610004  RH  068%=      5-min Rain = 0
KCES 181120Z 21013KT 06/00 A2979 RMK A01 T00630003  RH  066%=      5-min Rain = 0
KCES 181125Z 21014KT 06/00 A2979 RMK A01 T00640002  RH  065%=      5-min Rain = 0
KCES 181130Z 21014KT 07/00 A2978 RMK A01 T00650001  RH  064%=      5-min Rain = 0
KCES 181135Z 22013KT 07/00 A2978 RMK A01 T00660001  RH  064%=      5-min Rain = 0
KCES 181140Z 21013KT 07/00 A2978 RMK A01 T00660001  RH  064%=      5-min Rain = 0
KCES 181145Z 21013KT 07/00 A2977 RMK A01 T00670001  RH  063%=      5-min Rain = 0
KCES 181150Z 21013KT 07/00 A2977 RMK A01 T00700000  RH  062%=      5-min Rain = 0
KCES 181155Z 21013KT 07/00 A2976 RMK A01 T00710000  RH  061%=      5-min Rain = 0
KCES 181200Z 21012KT 07/M00 A2975 RMK A01 T00721001  RH  061%=      5-min Rain = 0
KCES 181205Z 21011KT 07/M00 A2975 RMK A01 T00711001  RH  061%=      5-min Rain = 0
KCES 181210Z 21012KT 07/M00 A2975 RMK A01 T00711001  RH  061%=      5-min Rain = 0
KCES 181215Z 21013KT 07/M00 A2975 RMK A01 T00731001  RH  060%=      5-min Rain = 0
KCES 181220Z 21013KT 07/M00 A2975 RMK A01 T00721001  RH  060%=      5-min Rain = 0
KCES 181225Z 21013KT 07/M00 A2975 RMK A01 T00721002  RH  060%=      5-min Rain = 0
KCES 181230Z 21014KT 07/M00 A2975 RMK A01 T00721003  RH  060%=      5-min Rain = 0
KCES 181235Z 21014KT 07/M00 A2975 RMK A01 T00731004  RH  059%=      5-min Rain = 0
KCES 181240Z 21013KT 08/M01 A2975 RMK A01 T00751005  RH  058%=      5-min Rain = 0
KCES 181245Z 21014KT 08/M01 A2974 RMK A01 T00761005  RH  057%=      5-min Rain = 0
KCES 181250Z 21014KT 08/M01 A2974 RMK A01 T00761005  RH  057%=      5-min Rain = 0
KCES 181255Z 21013KT 08/M01 A2975 RMK A01 T00761005  RH  057%=      5-min Rain = 0
KCES 181300Z 21013KT 08/M01 A2975 RMK A01 T00751005  RH  057%=      5-min Rain = 0
KCES 181305Z 21014KT 07/M01 A2975 RMK A01 T00741005  RH  058%=      5-min Rain = 0
KCES 181310Z 21015KT 07/M00 A2975 RMK A01 T00741004  RH  058%=      5-min Rain = 0
KCES 181315Z 21014KT 07/M00 A2975 RMK A01 T00741004  RH  058%=      5-min Rain = 0
KCES 181320Z 21013KT 07/M00 A2975 RMK A01 T00731004  RH  058%=      5-min Rain = 0
KCES 181325Z 21014KT 08/M01 A2975 RMK A01 T00761005  RH  057%=      5-min Rain = 0
KCES 181330Z 21013KT 08/M01 A2974 RMK A01 T00771005  RH  057%=      5-min Rain = 0
KCES 181335Z 21013KT 08/M01 A2974 RMK A01 T00771005  RH  057%=      5-min Rain = 0
KCES 181340Z 20012KT 08/M01 A2974 RMK A01 T00771006  RH  056%=      5-min Rain = 0
KCES 181345Z 20011KT 07/M01 A2974 RMK A01 T00741005  RH  058%=      5-min Rain = 0
KCES 181350Z 20012KT 07/M00 A2974 RMK A01 T00701003  RH  061%=      5-min Rain = 0
KCES 181355Z 20012KT 07/M00 A2974 RMK A01 T00691003  RH  061%=      5-min Rain = 0
KCES 181400Z 20012KT 07/M00 A2974 RMK A01 T00711004  RH  059%=      5-min Rain = 0
KCES 181405Z 20012KT 08/M01 A2974 RMK A01 T00751005  RH  058%=      5-min Rain = 0
KCES 181410Z 20012KT 08/M01 A2974 RMK A01 T00771005  RH  057%=      5-min Rain = 0
KCES 181415Z 21012KT 08/M01 A2974 RMK A01 T00821006  RH  055%=      5-min Rain = 0
KCES 181420Z 20012KT 08/M01 A2973 RMK A01 T00841006  RH  054%=      5-min Rain = 0
KCES 181425Z 20012KT 08/M00 A2973 RMK A01 T00811003  RH  056%=      5-min Rain = 0
KCES 181430Z 20011KT 08/M00 A2974 RMK A01 T00781002  RH  058%=      5-min Rain = 0
KCES 181435Z 20010KT 08/M00 A2974 RMK A01 T00791002  RH  057%=      5-min Rain = 0
KCES 181440Z 20010KT 08/M00 A2973 RMK A01 T00831003  RH  056%=      5-min Rain = 0
KCES 181445Z 20010KT 08/M00 A2973 RMK A01 T00841002  RH  055%=      5-min Rain = 0
KCES 181450Z 20011KT 08/M00 A2973 RMK A01 T00831001  RH  056%=      5-min Rain = 0
KCES 181455Z 21011KT 09/M00 A2973 RMK A01 T00861001  RH  055%=      5-min Rain = 0
KCES 181500Z 21012KT 09/M00 A2973 RMK A01 T00921002  RH  052%=      5-min Rain = 0
KCES 181505Z 21014KT 10/M00 A2973 RMK A01 T01001003  RH  049%=      5-min Rain = 0
KCES 181510Z 22014KT 11/M00 A2972 RMK A01 T01101002  RH  046%=      5-min Rain = 0
KCES 181515Z 22014KT 12/M00 A2972 RMK A01 T01151001  RH  045%=      5-min Rain = 0
KCES 181520Z 22015KT 12/00 A2972 RMK A01 T01200001  RH  044%=      5-min Rain = 0
KCES 181525Z 23017G24KT 13/00 A2971 RMK A01 T01290001  RH  042%=      5-min Rain = 0
KCES 181530Z 23018G25KT 14/00 A2971 RMK A01 T01360000  RH  040%=      5-min Rain = 0
KCES 181535Z 23019G25KT 14/M00 A2971 RMK A01 T01391002  RH  038%=      5-min Rain = 0
KCES 181540Z 23020KT 14/M00 A2971 RMK A01 T01361002  RH  039%=      5-min Rain = 0
KCES 181545Z 23018G24KT 14/00 A2972 RMK A01 T013700-0  RH  039%=      5-min Rain = 0
KCES 181550Z 23017G23KT 14/00 A2972 RMK A01 T01380000  RH  039%=      5-min Rain = 0
KCES 181555Z 24018G26KT 14/00 A2972 RMK A01 T01400003  RH  039%=      5-min Rain = 0
KCES 181600Z 25017G23KT 15/00 A2972 RMK A01 T01450004  RH  038%=      5-min Rain = 0
KCES 181605Z 24017KT 15/00 A2971 RMK A01 T01470004  RH  038%=      5-min Rain = 0
KCES 181610Z 24016G22KT 15/01 A2971 RMK A01 T01480005  RH  038%=      5-min Rain = 0
KCES 181615Z 24017G22KT 15/01 A2971 RMK A01 T01500006  RH  038%=      5-min Rain = 0
KCES 181620Z 25019G24KT 15/01 A297 RMK A01 T01520010  RH  038%=      5-min Rain = 0
KCES 181625Z 25020G25KT 16/01 A297 RMK A01 T01550012  RH  038%=      5-min Rain = 0
KCES 181630Z 24019G25KT 16/01 A297 RMK A01 T01570013  RH  038%=      5-min Rain = 0
KCES 181635Z 25019G24KT 16/01 A297 RMK A01 T01590013  RH  038%=      5-min Rain = 0
KCES 181640Z 25021G29KT 16/01 A2969 RMK A01 T01590012  RH  038%=      5-min Rain = 0
KCES 181645Z 25021G30KT 16/01 A2969 RMK A01 T01590012  RH  038%=      5-min Rain = 0
KCES 181650Z 24022G29KT 16/01 A2968 RMK A01 T01590010  RH  037%=      5-min Rain = 0
KCES 181655Z 25023G29KT 16/01 A2968 RMK A01 T01610010  RH  036%=      5-min Rain = 0
KCES 181700Z 25022G30KT 16/01 A2968 RMK A01 T01640009  RH  036%=      5-min Rain = 0
KCES 181705Z 25020G26KT 17/01 A2968 RMK A01 T01650010  RH  036%=      5-min Rain = 0
KCES 181710Z 26019G26KT 17/01 A2968 RMK A01 T01670011  RH  035%=      5-min Rain = 0
KCES 181715Z 25021G28KT 17/01 A2967 RMK A01 T01690010  RH  035%=      5-min Rain = 0
KCES 181720Z 25023G31KT 17/01 A2967 RMK A01 T01700011  RH  034%=      5-min Rain = 0
KCES 181725Z 25025G33KT 17/01 A2967 RMK A01 T01700010  RH  034%=      5-min Rain = 0
KCES 181730Z 26022G28KT 17/01 A2967 RMK A01 T01700012  RH  035%=      5-min Rain = 0
KCES 181735Z 25024G33KT 17/01 A2966 RMK A01 T01690013  RH  035%=      5-min Rain = 0
KCES 181740Z 25021G28KT 17/01 A2966 RMK A01 T01700014  RH  036%=      5-min Rain = 0
KCES 181745Z 25022G30KT 17/02 A2965 RMK A01 T01690015  RH  036%=      5-min Rain = 0
KCES 181750Z 25023G29KT 17/02 A2965 RMK A01 T01700016  RH  036%=      5-min Rain = 0
KCES 181755Z 25023G30KT 17/02 A2964 RMK A01 T01730017  RH  035%=      5-min Rain = 0
KCES 181800Z 25020G25KT 18/02 A2964 RMK A01 T01780018  RH  035%=      5-min Rain = 0
KCES 181805Z 25023G29KT 18/02 A2963 RMK A01 T01830017  RH  033%=      5-min Rain = 0
KCES 181810Z 25024G33KT 19/02 A2963 RMK A01 T01870017  RH  033%=      5-min Rain = 0
KCES 181815Z 25029G40KT 19/02 A2963 RMK A01 T01910017  RH  032%=      5-min Rain = 0
KCES 181820Z 25027G36KT 19/02 A2962 RMK A01 T01930019  RH  032%=      5-min Rain = 0
KCES 181825Z 25026G33KT 20/02 A2962 RMK A01 T01970020  RH  031%=      5-min Rain = 0
KCES 181830Z 26025G33KT 20/02 A2961 RMK A01 T01970020  RH  031%=      5-min Rain = 0
KCES 181835Z 26028G35KT 20/02 A2961 RMK A01 T01990018  RH  030%=      5-min Rain = 0
KCES 181840Z 26025G32KT 20/02 A296 RMK A01 T01990018  RH  031%=      5-min Rain = 0
KCES 181845Z 25026G34KT 20/02 A296 RMK A01 T02000015  RH  030%=      5-min Rain = 0
KCES 181850Z 25023G32KT 20/02 A2959 RMK A01 T02020015  RH  029%=      5-min Rain = 0
KCES 181855Z 26021G27KT 21/01 A2959 RMK A01 T02060012  RH  028%=      5-min Rain = 0
KCES 181900Z 26025G34KT 21/01 A2959 RMK A01 T02050009  RH  028%=      5-min Rain = 0
KCES 181905Z 27024G32KT 20/01 A2959 RMK A01 T02030010  RH  028%=      5-min Rain = 0
KCES 181910Z 27022G31KT 20/01 A2958 RMK A01 T02040011  RH  028%=      5-min Rain = 0
KCES 181915Z 26022G31KT 20/01 A2958 RMK A01 T02040011  RH  028%=      5-min Rain = 0
KCES 181920Z 27021G26KT 21/01 A2957 RMK A01 T02070008  RH  027%=      5-min Rain = 0
KCES 181925Z 27022G31KT 21/01 A2957 RMK A01 T02060008  RH  027%=      5-min Rain = 0
KCES 181930Z 25022G28KT 21/00 A2957 RMK A01 T02070003  RH  026%=      5-min Rain = 0
KCES 181935Z 26024G31KT 21/M00 A2957 RMK A01 T02081002  RH  025%=      5-min Rain = 0
KCES 181940Z 28021G34KT 21/M01 A2956 RMK A01 T02081006  RH  024%=      5-min Rain = 0
KCES 181945Z 26020G29KT 21/M00 A2956 RMK A01 T02091003  RH  025%=      5-min Rain = 0
KCES 181950Z 26022G31KT 21/M01 A2956 RMK A01 T02091007  RH  024%=      5-min Rain = 0
KCES 181955Z 27022G30KT 21/M01 A2956 RMK A01 T02051010  RH  024%=      5-min Rain = 0
KCES 182000Z 27021G28KT 21/M01 A2956 RMK A01 T02091010  RH  023%=      5-min Rain = 0
KCES 182005Z 27021G27KT 21/M01 A2955 RMK A01 T02091011  RH  023%=      5-min Rain = 0
KCES 182010Z 27021G27KT 22/M01 A2955 RMK A01 T02151009  RH  023%=      5-min Rain = 0
KCES 182015Z 25024G32KT 21/M01 A2955 RMK A01 T02111014  RH  022%=      5-min Rain = 0
KCES 182020Z 27024G29KT 20/M02 A2955 RMK A01 T02021017  RH  023%=      5-min Rain = 0
KCES 182025Z 27021G26KT 20/M02 A2956 RMK A01 T01981017  RH  024%=      5-min Rain = 0
KCES 182030Z 27022G29KT 19/M02 A2956 RMK A01 T01941017  RH  024%=      5-min Rain = 0
KCES 182035Z 28018G28KT 19/M02 A2956 RMK A01 T01931015  RH  025%=      5-min Rain = 0
KCES 182040Z 27017G22KT 19/M02 A2956 RMK A01 T01921015  RH  025%=      5-min Rain = 0
KCES 182045Z 28015G21KT 19/M02 A2956 RMK A01 T01911015  RH  025%=      5-min Rain = 0
KCES 182050Z 28019G27KT 19/M03 A2956 RMK A01 T01941025  RH  023%=      5-min Rain = 0
KCES 182055Z 27020G27KT 20/M04 A2956 RMK A01 T01951039  RH  020%=      5-min Rain = 0
KCES 182100Z 27020G25KT 19/M04 A2956 RMK A01 T01911042  RH  020%=      5-min Rain = 0
KCES 182105Z 28016G23KT 19/M04 A2956 RMK A01 T01881042  RH  021%=      5-min Rain = 0
KCES 182110Z 28016G23KT 19/M04 A2956 RMK A01 T01901039  RH  021%=      5-min Rain = 0
KCES 182115Z 28019G25KT 19/M04 A2956 RMK A01 T01921038  RH  021%=      5-min Rain = 0
KCES 182120Z 28018G24KT 19/M04 A2956 RMK A01 T01921039  RH  021%=      5-min Rain = 0
KCES 182125Z 27016G22KT 19/M04 A2956 RMK A01 T01921038  RH  021%=      5-min Rain = 0
KCES 182130Z 27018G25KT 19/M04 A2956 RMK A01 T01911042  RH  020%=      5-min Rain = 0
KCES 182135Z 27018G24KT 19/M04 A2956 RMK A01 T01911043  RH  020%=      5-min Rain = 0
KCES 182140Z 27016G23KT 19/M04 A2956 RMK A01 T01901042  RH  020%=      5-min Rain = 0
KCES 182145Z 28015G20KT 19/M04 A2956 RMK A01 T01891041  RH  021%=      5-min Rain = 0
KCES 182150Z 27014KT 19/M04 A2956 RMK A01 T01891043  RH  020%=      5-min Rain = 0
KCES 182155Z 26017G22KT 19/M05 A2956 RMK A01 T01891046  RH  020%=      5-min Rain = 0
KCES 182200Z 26015KT 19/M05 A2957 RMK A01 T01881045  RH  020%=      5-min Rain = 0
KCES 182205Z 26015KT 19/M05 A2957 RMK A01 T01871045  RH  020%=      5-min Rain = 0
KCES 182210Z 26013G19KT 19/M05 A2957 RMK A01 T01871045  RH  020%=      5-min Rain = 0
KCES 182215Z 26016G21KT 19/M05 A2957 RMK A01 T01861046  RH  020%=      5-min Rain = 0
KCES 182220Z 26014G19KT 19/M05 A2957 RMK A01 T01851046  RH  021%=      5-min Rain = 0
KCES 182225Z 26013G18KT 18/M05 A2958 RMK A01 T01841045  RH  021%=      5-min Rain = 0
KCES 182230Z 27014G20KT 18/M05 A2958 RMK A01 T01841047  RH  020%=      5-min Rain = 0
KCES 182235Z 27016G22KT 18/M05 A2958 RMK A01 T01831050  RH  020%=      5-min Rain = 0
KCES 182240Z 26017G23KT 18/M05 A2958 RMK A01 T01821047  RH  021%=      5-min Rain = 0
KCES 182245Z 27017KT 18/M05 A2958 RMK A01 T01821047  RH  021%=      5-min Rain = 0
KCES 182250Z 27015G20KT 18/M05 A2958 RMK A01 T01811048  RH  021%=      5-min Rain = 0
KCES 182255Z 28015G20KT 18/M05 A2958 RMK A01 T01801048  RH  021%=      5-min Rain = 0
KCES 182300Z 34021G31KT 16/M01 A2961 RMK A01 T01581013  RH  032%=      5-min Rain = 0
KCES 182305Z 35024G30KT 13/M00 A2961 RMK A01 T01251001  RH  042%=      5-min Rain = 0
KCES 182310Z 35025G31KT 11/00 A2963 RMK A01 T01100002  RH  048%=      5-min Rain = 0
KCES 182315Z 35025G32KT 10/00 A2963 RMK A01 T01000001  RH  051%=      5-min Rain = 0
KCES 182320Z 34024G31KT 09/00 A2964 RMK A01 T00910001  RH  054%=      5-min Rain = 0
KCES 182325Z 34024G30KT 09/00 A2965 RMK A01 T00860001  RH  056%=      5-min Rain = 0
KCES 182330Z 34026G33KT 08/00 A2967 RMK A01 T00810001  RH  058%=      5-min Rain = 0
KCES 182335Z 35026G35KT 07/M00 A2967 RMK A01 T00741001  RH  059%=      5-min Rain = 0
KCES 182340Z 35025G32KT 07/M00 A2967 RMK A01 T00671003  RH  062%=      5-min Rain = 0
KCES 182345Z 35026G34KT 06/M00 A2967 RMK A01 T00621003  RH  063%=      5-min Rain = 0
KCES 182350Z 36027G33KT 06/M00 A2967 RMK A01 T00571004  RH  066%=      5-min Rain = 0
KCES 182355Z 00025G31KT 05/M00 A2967 RMK A01 T00521004  RH  068%=      5-min Rain = 0
KCES 190000Z 36026G33KT 05/M01 A2968 RMK A01 T00481005  RH  069%=      5-min Rain = 0
KCES 190005Z 35027G34KT 05/M01 A2969 RMK A01 T00451005  RH  071%=      5-min Rain = 0
KCES 190010Z 36028G37KT 04/M01 A2969 RMK A01 T00421005  RH  072%=      5-min Rain = 0
KCES 190015Z 35024G32KT 04/M00 A2969 RMK A01 T00401004  RH  074%=      5-min Rain = 0
KCES 190020Z 35024G30KT 04/M00 A2969 RMK A01 T00381004  RH  075%=      5-min Rain = 0
KCES 190025Z 00029G36KT 04/M01 A297 RMK A01 T00371005  RH  075%=      5-min Rain = 0
KCES 190030Z 36029G38KT 04/M01 A297 RMK A01 T00371006  RH  075%=      5-min Rain = 0
KCES 190035Z 35030G38KT 04/M01 A2971 RMK A01 T00361005  RH  075%=      5-min Rain = 0
KCES 190040Z 35028G35KT 04/M01 A2972 RMK A01 T00361005  RH  075%=      5-min Rain = 0
KCES 190045Z 36026G33KT 04/M01 A2972 RMK A01 T00361006  RH  075%=      5-min Rain = 0
KCES 190050Z 35024G32KT 04/M01 A2974 RMK A01 T00361005  RH  075%=      5-min Rain = 0
KCES 190055Z 35025G33KT 04/M01 A2974 RMK A01 T00351005  RH  076%=      5-min Rain = 0
KCES 190100Z 35027G37KT 04/M01 A2975 RMK A01 T00351005  RH  076%=      5-min Rain = 0
KCES 190105Z 35029G39KT 03/M01 A2975 RMK A01 T00341005  RH  077%=      5-min Rain = 0
KCES 190110Z 35028G36KT 03/M01 A2976 RMK A01 T00331005  RH  077%=      5-min Rain = 0
KCES 190115Z 35028G37KT 03/M01 A2976 RMK A01 T00331005  RH  077%=      5-min Rain = 0
KCES 190120Z 35028G33KT 03/M01 A2977 RMK A01 T00311005  RH  078%=      5-min Rain = 0
KCES 190125Z 36027G35KT 03/M01 A2978 RMK A01 T00301005  RH  079%=      5-min Rain = 0
KCES 190130Z 35028G35KT 03/M01 A2978 RMK A01 T00291005  RH  079%=      5-min Rain = 0
KCES 190135Z 36027G35KT 03/M01 A2978 RMK A01 T00291005  RH  079%=      5-min Rain = 0
KCES 190140Z 35025G34KT 03/M01 A2978 RMK A01 T00301005  RH  079%=      5-min Rain = 0
KCES 190145Z 35026G36KT 03/M01 A2979 RMK A01 T00281006  RH  079%=      5-min Rain = 0
KCES 190150Z 36026G36KT 03/M01 A2979 RMK A01 T00271006  RH  080%=      5-min Rain = 0
KCES 190155Z 35029G39KT 03/M01 A298 RMK A01 T00261007  RH  080%=      5-min Rain = 0
KCES 190200Z 35029G39KT 03/M01 A298 RMK A01 T00261007  RH  080%=      5-min Rain = 0
KCES 190205Z 35030G37KT 02/M01 A2981 RMK A01 T00241009  RH  080%=      5-min Rain = 0
KCES 190210Z 35032G38KT 02/M01 A2981 RMK A01 T00231011  RH  079%=      5-min Rain = 0
KCES 190215Z 36033G43KT 02/M01 A2981 RMK A01 T00221013  RH  078%=      5-min Rain = 0
KCES 190220Z 36032G41KT 02/M01 A2982 RMK A01 T00231014  RH  077%=      5-min Rain = 0
KCES 190225Z 35033G40KT 02/M02 A2982 RMK A01 T00231016  RH  076%=      5-min Rain = 0
KCES 190230Z 36034G43KT 02/M02 A2983 RMK A01 T00221019  RH  075%=      5-min Rain = 0
KCES 190235Z 00033G40KT 02/M02 A2983 RMK A01 T00211021  RH  074%=      5-min Rain = 0
KCES 190240Z 35029G37KT 02/M02 A2984 RMK A01 T00211020  RH  075%=      5-min Rain = 0
KCES 190245Z 35029G38KT 02/M02 A2984 RMK A01 T00191019  RH  076%=      5-min Rain = 0
KCES 190250Z 35030G37KT 02/M02 A2985 RMK A01 T00171021  RH  076%=      5-min Rain = 0
KCES 190255Z 35028G38KT 02/M02 A2985 RMK A01 T00161023  RH  076%=      5-min Rain = 0
KCES 190300Z 36031G41KT 02/M03 A2985 RMK A01 T00151025  RH  075%=      5-min Rain = 0
KCES 190305Z 36033G42KT 02/M03 A2985 RMK A01 T00151027  RH  074%=      5-min Rain = 0
KCES 190310Z 36031G42KT 02/M03 A2986 RMK A01 T00151029  RH  073%=      5-min Rain = 0
KCES 190315Z 35027G34KT 02/M03 A2986 RMK A01 T00151027  RH  074%=      5-min Rain = 0
KCES 190320Z 35026G34KT 01/M03 A2987 RMK A01 T00141026  RH  075%=      5-min Rain = 0
KCES 190325Z 36028G39KT 01/M03 A2987 RMK A01 T00141026  RH  075%=      5-min Rain = 0
KCES 190330Z 36028G40KT 01/M03 A2987 RMK A01 T00141027  RH  075%=      5-min Rain = 0
KCES 190335Z 36028G41KT 01/M03 A2988 RMK A01 T00141027  RH  075%=      5-min Rain = 0
KCES 190340Z 36029G36KT 01/M03 A2988 RMK A01 T00131027  RH  075%=      5-min Rain = 0
KCES 190345Z 36027G33KT 01/M03 A2988 RMK A01 T00131026  RH  076%=      5-min Rain = 0
KCES 190350Z 35027G35KT 01/M03 A2989 RMK A01 T00131025  RH  077%=      5-min Rain = 0
KCES 190355Z 36029G38KT 01/M02 A2989 RMK A01 T00121024  RH  078%=      5-min Rain = 0
KCES 190400Z 35031G41KT 01/M03 A2989 RMK A01 T00111026  RH  077%=      5-min Rain = 0
KCES 190405Z 36032G42KT 01/M03 A299 RMK A01 T00111028  RH  076%=      5-min Rain = 0
KCES 190410Z 36030G38KT 01/M03 A2992 RMK A01 T00101032  RH  074%=      5-min Rain = 0
KCES 190415Z 00029G40KT 01/M03 A2993 RMK A01 T00091034  RH  073%=      5-min Rain = 0
KCES 190420Z 36029G37KT 01/M04 A2993 RMK A01 T00081035  RH  073%=      5-min Rain = 0
KCES 190425Z 00029G34KT 01/M04 A2993 RMK A01 T00081035  RH  073%=      5-min Rain = 0
KCES 190430Z 00030G39KT 01/M04 A2994 RMK A01 T00081036  RH  073%=      5-min Rain = 0
KCES 190435Z 00025G33KT 01/M04 A2994 RMK A01 T00071035  RH  074%=      5-min Rain = 0
KCES 190440Z 00026G37KT 01/M04 A2995 RMK A01 T00071035  RH  074%=      5-min Rain = 0
KCES 190445Z 00030G39KT 01/M04 A2995 RMK A01 T00081036  RH  073%=      5-min Rain = 0
KCES 190450Z 00027G32KT 01/M04 A2995 RMK A01 T00071035  RH  074%=      5-min Rain = 0
KCES 190455Z 36029G36KT 01/M03 A2996 RMK A01 T00061034  RH  075%=      5-min Rain = 0
KCES 190500Z 00026G36KT 01/M03 A2996 RMK A01 T00051034  RH  076%=      5-min Rain = 0
KCES 190505Z 01023G29KT 00/M03 A2997 RMK A01 T00031032  RH  078%=      5-min Rain = 0
KCES 190510Z 00022G29KT 00/M03 A2997 RMK A01 T00031031  RH  078%=      5-min Rain = 0
KCES 190515Z 36023G31KT 00/M03 A2997 RMK A01 T00031031  RH  078%=      5-min Rain = 0
KCES 190520Z 00023G30KT 00/M03 A2997 RMK A01 T00041033  RH  077%=      5-min Rain = 0
KCES 190525Z 36027G36KT 01/M04 A2997 RMK A01 T00051035  RH  075%=      5-min Rain = 0
KCES 190530Z 36026G35KT 01/M03 A2997 RMK A01 T00051034  RH  076%=      5-min Rain = 0
KCES 190535Z 36027G38KT 01/M03 A2997 RMK A01 T00051033  RH  076%=      5-min Rain = 0
KCES 190540Z 35024G32KT 01/M03 A2998 RMK A01 T00051033  RH  076%=      5-min Rain = 0
KCES 190545Z 36023G30KT 01/M03 A2998 RMK A01 T00051033  RH  076%=      5-min Rain = 0
KCES 190550Z 36025G34KT 01/M03 A2998 RMK A01 T00061033  RH  076%=      5-min Rain = 0
KCES 190555Z 36026G37KT 01/M03 A2999 RMK A01 T00071032  RH  076%=      5-min Rain = 0

Page generated in 0.0167 seconds.